createdAt,value
2022-11-25T00:02:47.552Z,4.22
2022-11-25T00:07:39.468Z,4.29
2022-11-25T00:12:31.468Z,4.52
2022-11-25T00:17:23.627Z,4.62
2022-11-25T00:22:15.588Z,4.64
2022-11-25T00:27:07.269Z,4.72
2022-11-25T00:31:58.983Z,4.89
2022-11-25T00:36:50.713Z,5.13
2022-11-25T00:42:03.595Z,5.01
2022-11-25T00:46:55.792Z,5.01
2022-11-25T00:51:47.532Z,5.06
2022-11-25T00:56:39.371Z,5.08
2022-11-25T01:01:31.173Z,5.10
2022-11-25T01:06:23.784Z,5.14
2022-11-25T01:11:22.327Z,5.11
2022-11-25T01:16:18.936Z,4.99
2022-11-25T01:21:18.849Z,4.99
2022-11-25T01:26:14.340Z,5.02
2022-11-25T01:31:11.510Z,5.04
2022-11-25T01:36:13.313Z,5.00
2022-11-25T01:41:09.229Z,4.93
2022-11-25T01:46:27.791Z,4.83
2022-11-25T01:51:29.725Z,4.90
2022-11-25T01:56:21.804Z,4.82
2022-11-25T02:01:15.797Z,4.89
2022-11-25T02:06:23.531Z,4.74
2022-11-25T02:11:17.255Z,4.68
2022-11-25T02:16:09.178Z,4.69
2022-11-25T02:21:01.033Z,4.69
2022-11-25T02:25:53.726Z,4.70
2022-11-25T02:30:46.842Z,4.61
2022-11-25T02:35:42.664Z,4.61
2022-11-25T02:41:01.499Z,4.58
2022-11-25T02:46:22.091Z,4.61
2022-11-25T02:51:17.987Z,4.60
2022-11-25T02:56:12.530Z,4.67
2022-11-25T03:01:04.426Z,4.63
2022-11-25T03:05:56.213Z,4.63
2022-11-25T03:10:48.240Z,4.62
2022-11-25T03:15:40.302Z,4.62
2022-11-25T03:20:32.274Z,4.60
2022-11-25T03:25:23.953Z,4.69
2022-11-25T03:30:20.448Z,4.68
2022-11-25T03:35:13.865Z,4.71
2022-11-25T03:40:07.295Z,4.73
2022-11-25T03:44:58.983Z,4.69
2022-11-25T03:49:50.780Z,4.67
2022-11-25T03:54:42.839Z,4.68
2022-11-25T03:59:34.516Z,4.70
2022-11-25T04:04:26.302Z,4.70
2022-11-25T04:09:18.163Z,4.67
2022-11-25T04:14:09.905Z,4.69
2022-11-25T04:19:01.579Z,4.73
2022-11-25T04:23:53.253Z,4.73
2022-11-25T04:28:44.912Z,4.74
2022-11-25T04:33:36.593Z,4.77
2022-11-25T04:38:28.325Z,4.84
2022-11-25T04:43:20.164Z,4.94
2022-11-25T04:48:11.844Z,4.94
2022-11-25T04:53:03.668Z,4.88
2022-11-25T04:57:55.687Z,4.85
2022-11-25T05:02:48.504Z,4.79
2022-11-25T05:07:40.583Z,4.72
2022-11-25T05:12:32.962Z,4.77
2022-11-25T05:17:29.239Z,4.77
2022-11-25T05:48:00.529Z,4.86
2022-11-25T05:52:53.311Z,4.79
2022-11-25T05:57:45.727Z,4.74
2022-11-25T06:02:37.849Z,4.76
2022-11-25T06:07:30.627Z,4.74
2022-11-25T06:12:24.697Z,4.73
2022-11-25T06:17:16.822Z,4.70
2022-11-25T06:22:16.314Z,4.76
2022-11-25T06:27:09.977Z,4.78
2022-11-25T06:32:03.229Z,4.96
2022-11-25T06:42:01.074Z,4.93
2022-11-25T06:46:54.441Z,4.97
2022-11-25T07:07:08.655Z,4.91
2022-11-25T07:12:02.657Z,5.05
2022-11-25T07:16:54.542Z,5.07
2022-11-25T07:21:48.739Z,5.04
2022-11-25T07:26:46.536Z,5.07
2022-11-25T07:36:52.652Z,5.32
2022-11-25T07:47:19.191Z,5.47
2022-11-25T08:07:49.674Z,6.05
2022-11-25T08:17:55.256Z,6.22
2022-11-25T08:27:54.384Z,6.41
2022-11-25T09:08:30.851Z,7.49
2022-11-25T09:18:31.640Z,7.86
2022-11-25T11:00:39.819Z,9.16
2022-11-25T11:26:15.641Z,9.23
2022-11-25T11:53:40.150Z,9.90
2022-11-25T12:55:31.551Z,10.03
2022-11-25T13:06:48.745Z,9.87
2022-11-25T13:12:16.197Z,9.88
2022-11-25T13:38:04.109Z,9.86
2022-11-25T14:22:45.934Z,9.68
2022-11-25T14:43:47.121Z,9.75
2022-11-25T17:13:49.657Z,7.91
2022-11-25T19:06:31.517Z,6.99
2022-11-25T21:00:08.017Z,7.63
2022-11-25T23:35:30.947Z,5.69
